sensor_id;sensor_type;location;lat;lon;timestamp;P1;durP1;ratioP1;P2;durP2;ratioP2
19384;SDS011;9828;54.122;17.974;2023-07-08T00:03:18;15.10;;;6.55;;
19384;SDS011;9828;54.122;17.974;2023-07-08T00:08:39;9.20;;;5.00;;
19384;SDS011;9828;54.122;17.974;2023-07-08T00:14:00;8.38;;;4.55;;
19384;SDS011;9828;54.122;17.974;2023-07-08T00:19:22;13.52;;;6.57;;
19384;SDS011;9828;54.122;17.974;2023-07-08T00:24:44;15.55;;;6.80;;
19384;SDS011;9828;54.122;17.974;2023-07-08T00:30:49;10.90;;;6.65;;
19384;SDS011;9828;54.122;17.974;2023-07-08T00:35:51;12.07;;;6.40;;
19384;SDS011;9828;54.122;17.974;2023-07-08T00:41:29;10.73;;;5.70;;
19384;SDS011;9828;54.122;17.974;2023-07-08T00:47:07;8.43;;;5.20;;
19384;SDS011;9828;54.122;17.974;2023-07-08T00:52:30;5.75;;;4.47;;
19384;SDS011;9828;54.122;17.974;2023-07-08T00:57:52;6.55;;;4.47;;
19384;SDS011;9828;54.122;17.974;2023-07-08T01:03:13;7.07;;;4.55;;
19384;SDS011;9828;54.122;17.974;2023-07-08T01:08:35;5.65;;;3.90;;
19384;SDS011;9828;54.122;17.974;2023-07-08T01:13:56;5.65;;;4.07;;
19384;SDS011;9828;54.122;17.974;2023-07-08T01:19:21;7.15;;;4.55;;
19384;SDS011;9828;54.122;17.974;2023-07-08T01:24:52;5.30;;;4.25;;
19384;SDS011;9828;54.122;17.974;2023-07-08T01:30:14;8.27;;;5.07;;
19384;SDS011;9828;54.122;17.974;2023-07-08T01:35:37;6.75;;;5.35;;
19384;SDS011;9828;54.122;17.974;2023-07-08T01:40:58;7.55;;;4.47;;
19384;SDS011;9828;54.122;17.974;2023-07-08T01:46:22;7.18;;;4.55;;
19384;SDS011;9828;54.122;17.974;2023-07-08T01:51:45;13.43;;;4.93;;
19384;SDS011;9828;54.122;17.974;2023-07-08T01:57:08;6.38;;;4.10;;
19384;SDS011;9828;54.122;17.974;2023-07-08T02:02:29;6.70;;;4.45;;
19384;SDS011;9828;54.122;17.974;2023-07-08T02:07:50;6.13;;;3.47;;
19384;SDS011;9828;54.122;17.974;2023-07-08T02:13:12;4.68;;;3.55;;
19384;SDS011;9828;54.122;17.974;2023-07-08T02:18:33;6.30;;;3.88;;
19384;SDS011;9828;54.122;17.974;2023-07-08T02:23:54;5.07;;;3.78;;
19384;SDS011;9828;54.122;17.974;2023-07-08T02:29:16;7.38;;;4.55;;
19384;SDS011;9828;54.122;17.974;2023-07-08T02:34:38;5.80;;;4.15;;
19384;SDS011;9828;54.122;17.974;2023-07-08T02:40:00;9.57;;;5.20;;
19384;SDS011;9828;54.122;17.974;2023-07-08T02:45:22;7.60;;;4.35;;
19384;SDS011;9828;54.122;17.974;2023-07-08T02:50:44;5.57;;;3.70;;
19384;SDS011;9828;54.122;17.974;2023-07-08T02:56:05;7.13;;;4.38;;
19384;SDS011;9828;54.122;17.974;2023-07-08T03:01:26;5.45;;;4.15;;
19384;SDS011;9828;54.122;17.974;2023-07-08T03:06:49;6.72;;;3.72;;
19384;SDS011;9828;54.122;17.974;2023-07-08T03:12:11;6.18;;;3.70;;
19384;SDS011;9828;54.122;17.974;2023-07-08T03:17:32;5.85;;;4.13;;
19384;SDS011;9828;54.122;17.974;2023-07-08T03:22:53;4.95;;;3.65;;
19384;SDS011;9828;54.122;17.974;2023-07-08T03:28:15;4.70;;;3.60;;
19384;SDS011;9828;54.122;17.974;2023-07-08T03:33:37;6.05;;;4.03;;
19384;SDS011;9828;54.122;17.974;2023-07-08T03:38:58;5.25;;;3.42;;
19384;SDS011;9828;54.122;17.974;2023-07-08T03:44:21;4.53;;;3.13;;
19384;SDS011;9828;54.122;17.974;2023-07-08T03:49:42;6.15;;;3.00;;
19384;SDS011;9828;54.122;17.974;2023-07-08T03:55:03;4.95;;;3.72;;
19384;SDS011;9828;54.122;17.974;2023-07-08T04:00:28;6.05;;;3.78;;
19384;SDS011;9828;54.122;17.974;2023-07-08T04:05:52;7.35;;;4.00;;
19384;SDS011;9828;54.122;17.974;2023-07-08T04:11:14;6.00;;;3.53;;
19384;SDS011;9828;54.122;17.974;2023-07-08T04:16:43;6.88;;;3.70;;
19384;SDS011;9828;54.122;17.974;2023-07-08T04:22:11;7.40;;;3.40;;
19384;SDS011;9828;54.122;17.974;2023-07-08T04:27:33;3.60;;;2.85;;
19384;SDS011;9828;54.122;17.974;2023-07-08T04:32:54;9.02;;;4.55;;
19384;SDS011;9828;54.122;17.974;2023-07-08T04:38:20;16.77;;;7.40;;
19384;SDS011;9828;54.122;17.974;2023-07-08T04:43:43;15.07;;;7.50;;
19384;SDS011;9828;54.122;17.974;2023-07-08T04:49:05;10.55;;;5.95;;
19384;SDS011;9828;54.122;17.974;2023-07-08T04:54:28;9.07;;;4.25;;
19384;SDS011;9828;54.122;17.974;2023-07-08T04:59:49;8.05;;;4.50;;
19384;SDS011;9828;54.122;17.974;2023-07-08T05:05:10;5.55;;;3.70;;
19384;SDS011;9828;54.122;17.974;2023-07-08T05:10:33;4.88;;;2.95;;
19384;SDS011;9828;54.122;17.974;2023-07-08T05:15:54;4.93;;;3.28;;
19384;SDS011;9828;54.122;17.974;2023-07-08T05:21:17;3.45;;;2.65;;
19384;SDS011;9828;54.122;17.974;2023-07-08T05:26:39;3.15;;;2.38;;
19384;SDS011;9828;54.122;17.974;2023-07-08T05:32:01;2.22;;;1.38;;
19384;SDS011;9828;54.122;17.974;2023-07-08T05:37:22;1.80;;;1.35;;
19384;SDS011;9828;54.122;17.974;2023-07-08T05:42:45;1.60;;;1.50;;
19384;SDS011;9828;54.122;17.974;2023-07-08T05:48:06;3.47;;;1.75;;
19384;SDS011;9828;54.122;17.974;2023-07-08T05:53:28;2.20;;;1.67;;
19384;SDS011;9828;54.122;17.974;2023-07-08T05:58:49;1.88;;;1.55;;
19384;SDS011;9828;54.122;17.974;2023-07-08T06:04:11;3.83;;;1.83;;
19384;SDS011;9828;54.122;17.974;2023-07-08T06:09:32;3.90;;;2.20;;
19384;SDS011;9828;54.122;17.974;2023-07-08T06:14:54;2.97;;;1.90;;
19384;SDS011;9828;54.122;17.974;2023-07-08T06:20:15;4.07;;;1.80;;
19384;SDS011;9828;54.122;17.974;2023-07-08T06:25:36;3.67;;;1.90;;
19384;SDS011;9828;54.122;17.974;2023-07-08T06:30:58;5.38;;;1.88;;
19384;SDS011;9828;54.122;17.974;2023-07-08T06:36:20;2.00;;;1.83;;
19384;SDS011;9828;54.122;17.974;2023-07-08T06:41:41;3.30;;;1.80;;
19384;SDS011;9828;54.122;17.974;2023-07-08T06:47:02;1.70;;;1.60;;
19384;SDS011;9828;54.122;17.974;2023-07-08T06:52:24;2.50;;;1.88;;
19384;SDS011;9828;54.122;17.974;2023-07-08T06:57:46;3.92;;;2.03;;
19384;SDS011;9828;54.122;17.974;2023-07-08T07:03:08;4.18;;;2.05;;
19384;SDS011;9828;54.122;17.974;2023-07-08T07:08:30;4.05;;;2.20;;
19384;SDS011;9828;54.122;17.974;2023-07-08T07:13:51;4.88;;;2.05;;
19384;SDS011;9828;54.122;17.974;2023-07-08T07:19:12;2.63;;;1.90;;
19384;SDS011;9828;54.122;17.974;2023-07-08T07:24:33;3.08;;;1.70;;
19384;SDS011;9828;54.122;17.974;2023-07-08T07:29:55;1.95;;;1.45;;
19384;SDS011;9828;54.122;17.974;2023-07-08T07:35:21;4.30;;;1.70;;
19384;SDS011;9828;54.122;17.974;2023-07-08T07:40:44;5.20;;;1.77;;
19384;SDS011;9828;54.122;17.974;2023-07-08T07:46:05;2.20;;;1.88;;
19384;SDS011;9828;54.122;17.974;2023-07-08T07:51:28;2.67;;;2.00;;
19384;SDS011;9828;54.122;17.974;2023-07-08T07:56:49;3.00;;;1.90;;
19384;SDS011;9828;54.122;17.974;2023-07-08T08:02:11;2.70;;;1.60;;
19384;SDS011;9828;54.122;17.974;2023-07-08T08:07:32;7.60;;;1.90;;
19384;SDS011;9828;54.122;17.974;2023-07-08T08:12:54;3.00;;;2.10;;
19384;SDS011;9828;54.122;17.974;2023-07-08T08:18:15;2.58;;;1.55;;
19384;SDS011;9828;54.122;17.974;2023-07-08T08:23:36;9.07;;;2.00;;
19384;SDS011;9828;54.122;17.974;2023-07-08T08:28:58;5.05;;;1.70;;
19384;SDS011;9828;54.122;17.974;2023-07-08T08:34:19;2.03;;;1.83;;
19384;SDS011;9828;54.122;17.974;2023-07-08T08:39:40;4.72;;;2.35;;
19384;SDS011;9828;54.122;17.974;2023-07-08T08:45:02;13.48;;;2.63;;
19384;SDS011;9828;54.122;17.974;2023-07-08T08:50:32;7.63;;;2.70;;
19384;SDS011;9828;54.122;17.974;2023-07-08T08:56:16;6.05;;;1.70;;
19384;SDS011;9828;54.122;17.974;2023-07-08T09:01:41;3.08;;;1.60;;
19384;SDS011;9828;54.122;17.974;2023-07-08T09:07:08;5.85;;;1.67;;
19384;SDS011;9828;54.122;17.974;2023-07-08T09:12:34;2.28;;;1.75;;
19384;SDS011;9828;54.122;17.974;2023-07-08T09:17:57;3.38;;;1.60;;
19384;SDS011;9828;54.122;17.974;2023-07-08T09:23:37;4.25;;;1.90;;
19384;SDS011;9828;54.122;17.974;2023-07-08T09:28:59;3.30;;;1.50;;
19384;SDS011;9828;54.122;17.974;2023-07-08T09:34:23;4.05;;;1.77;;
19384;SDS011;9828;54.122;17.974;2023-07-08T09:39:59;3.40;;;1.70;;
19384;SDS011;9828;54.122;17.974;2023-07-08T09:45:24;2.53;;;1.52;;
19384;SDS011;9828;54.122;17.974;2023-07-08T09:50:48;5.78;;;1.80;;
19384;SDS011;9828;54.122;17.974;2023-07-08T09:56:11;3.25;;;1.75;;
19384;SDS011;9828;54.122;17.974;2023-07-08T10:01:34;3.90;;;1.73;;
19384;SDS011;9828;54.122;17.974;2023-07-08T10:06:55;2.92;;;2.15;;
19384;SDS011;9828;54.122;17.974;2023-07-08T10:12:17;4.50;;;1.90;;
19384;SDS011;9828;54.122;17.974;2023-07-08T10:17:39;2.80;;;1.92;;
19384;SDS011;9828;54.122;17.974;2023-07-08T10:23:05;3.85;;;1.95;;
19384;SDS011;9828;54.122;17.974;2023-07-08T10:28:49;4.40;;;2.85;;
19384;SDS011;9828;54.122;17.974;2023-07-08T10:34:41;7.18;;;2.30;;
19384;SDS011;9828;54.122;17.974;2023-07-08T11:08:33;6.50;;;1.85;;
19384;SDS011;9828;54.122;17.974;2023-07-08T11:14:06;3.97;;;2.17;;
19384;SDS011;9828;54.122;17.974;2023-07-08T11:20:09;4.95;;;2.17;;
19384;SDS011;9828;54.122;17.974;2023-07-08T11:25:42;4.53;;;2.05;;
19384;SDS011;9828;54.122;17.974;2023-07-08T11:31:06;3.60;;;2.10;;
19384;SDS011;9828;54.122;17.974;2023-07-08T11:36:28;6.78;;;2.30;;
19384;SDS011;9828;54.122;17.974;2023-07-08T11:41:52;3.78;;;2.25;;
19384;SDS011;9828;54.122;17.974;2023-07-08T11:47:16;2.35;;;2.10;;
19384;SDS011;9828;54.122;17.974;2023-07-08T11:53:03;2.72;;;2.13;;
19384;SDS011;9828;54.122;17.974;2023-07-08T11:58:29;2.92;;;1.77;;
19384;SDS011;9828;54.122;17.974;2023-07-08T12:04:00;2.75;;;2.00;;
19384;SDS011;9828;54.122;17.974;2023-07-08T12:09:38;2.80;;;1.85;;
19384;SDS011;9828;54.122;17.974;2023-07-08T12:20:32;1.80;;;1.70;;
19384;SDS011;9828;54.122;17.974;2023-07-08T12:25:56;3.58;;;1.90;;
19384;SDS011;9828;54.122;17.974;2023-07-08T12:31:19;2.00;;;1.60;;
19384;SDS011;9828;54.122;17.974;2023-07-08T12:36:43;4.97;;;1.70;;
19384;SDS011;9828;54.122;17.974;2023-07-08T12:42:08;3.22;;;1.52;;
19384;SDS011;9828;54.122;17.974;2023-07-08T12:47:32;4.50;;;1.42;;
19384;SDS011;9828;54.122;17.974;2023-07-08T12:52:53;2.47;;;1.67;;
19384;SDS011;9828;54.122;17.974;2023-07-08T12:58:22;2.42;;;1.63;;
19384;SDS011;9828;54.122;17.974;2023-07-08T13:03:50;7.07;;;1.75;;
19384;SDS011;9828;54.122;17.974;2023-07-08T13:14:51;2.72;;;1.30;;
19384;SDS011;9828;54.122;17.974;2023-07-08T13:20:15;2.28;;;1.50;;
19384;SDS011;9828;54.122;17.974;2023-07-08T13:25:38;2.30;;;1.40;;
19384;SDS011;9828;54.122;17.974;2023-07-08T13:31:00;8.75;;;2.58;;
19384;SDS011;9828;54.122;17.974;2023-07-08T13:36:24;3.65;;;1.65;;
19384;SDS011;9828;54.122;17.974;2023-07-08T13:41:53;1.40;;;1.27;;
19384;SDS011;9828;54.122;17.974;2023-07-08T13:47:19;1.70;;;1.27;;
19384;SDS011;9828;54.122;17.974;2023-07-08T13:52:53;2.08;;;1.35;;
19384;SDS011;9828;54.122;17.974;2023-07-08T13:58:17;1.92;;;1.45;;
19384;SDS011;9828;54.122;17.974;2023-07-08T14:03:38;2.15;;;1.40;;
19384;SDS011;9828;54.122;17.974;2023-07-08T14:09:06;6.15;;;1.60;;
19384;SDS011;9828;54.122;17.974;2023-07-08T14:14:38;2.17;;;1.70;;
19384;SDS011;9828;54.122;17.974;2023-07-08T14:19:59;2.42;;;1.40;;
19384;SDS011;9828;54.122;17.974;2023-07-08T14:25:21;1.77;;;1.20;;
19384;SDS011;9828;54.122;17.974;2023-07-08T14:37:22;3.88;;;1.60;;
19384;SDS011;9828;54.122;17.974;2023-07-08T14:42:44;1.45;;;1.20;;
19384;SDS011;9828;54.122;17.974;2023-07-08T14:48:09;1.85;;;1.30;;
19384;SDS011;9828;54.122;17.974;2023-07-08T14:53:32;1.83;;;1.40;;
19384;SDS011;9828;54.122;17.974;2023-07-08T14:58:54;4.65;;;1.55;;
19384;SDS011;9828;54.122;17.974;2023-07-08T15:04:17;5.90;;;2.15;;
19384;SDS011;9828;54.122;17.974;2023-07-08T15:09:39;5.95;;;1.77;;
19384;SDS011;9828;54.122;17.974;2023-07-08T15:15:00;3.03;;;1.42;;
19384;SDS011;9828;54.122;17.974;2023-07-08T15:20:22;1.60;;;1.48;;
19384;SDS011;9828;54.122;17.974;2023-07-08T15:25:45;2.88;;;2.00;;
19384;SDS011;9828;54.122;17.974;2023-07-08T15:31:09;2.20;;;1.73;;
19384;SDS011;9828;54.122;17.974;2023-07-08T15:36:32;4.25;;;1.90;;
19384;SDS011;9828;54.122;17.974;2023-07-08T15:41:54;1.90;;;1.65;;
19384;SDS011;9828;54.122;17.974;2023-07-08T15:47:15;4.18;;;1.58;;
19384;SDS011;9828;54.122;17.974;2023-07-08T15:52:37;2.88;;;1.45;;
19384;SDS011;9828;54.122;17.974;2023-07-08T15:58:06;4.88;;;1.58;;
19384;SDS011;9828;54.122;17.974;2023-07-08T16:03:52;2.35;;;1.67;;
19384;SDS011;9828;54.122;17.974;2023-07-08T16:09:14;2.53;;;1.50;;
19384;SDS011;9828;54.122;17.974;2023-07-08T16:14:36;2.55;;;1.92;;
19384;SDS011;9828;54.122;17.974;2023-07-08T16:19:58;2.13;;;1.60;;
19384;SDS011;9828;54.122;17.974;2023-07-08T16:25:29;2.20;;;1.80;;
19384;SDS011;9828;54.122;17.974;2023-07-08T16:30:54;1.67;;;1.58;;
19384;SDS011;9828;54.122;17.974;2023-07-08T16:36:20;3.47;;;1.58;;
19384;SDS011;9828;54.122;17.974;2023-07-08T16:41:41;2.25;;;1.75;;
19384;SDS011;9828;54.122;17.974;2023-07-08T16:47:07;2.38;;;1.55;;
19384;SDS011;9828;54.122;17.974;2023-07-08T16:52:29;1.95;;;1.50;;
19384;SDS011;9828;54.122;17.974;2023-07-08T16:57:52;1.83;;;1.30;;
19384;SDS011;9828;54.122;17.974;2023-07-08T17:03:14;4.15;;;1.95;;
19384;SDS011;9828;54.122;17.974;2023-07-08T17:08:38;4.15;;;2.00;;
19384;SDS011;9828;54.122;17.974;2023-07-08T17:14:00;4.45;;;1.90;;
19384;SDS011;9828;54.122;17.974;2023-07-08T17:19:21;4.15;;;2.20;;
19384;SDS011;9828;54.122;17.974;2023-07-08T17:24:43;2.85;;;1.77;;
19384;SDS011;9828;54.122;17.974;2023-07-08T17:30:04;4.68;;;1.63;;
19384;SDS011;9828;54.122;17.974;2023-07-08T17:35:27;2.33;;;1.70;;
19384;SDS011;9828;54.122;17.974;2023-07-08T17:40:51;2.42;;;1.63;;
19384;SDS011;9828;54.122;17.974;2023-07-08T17:46:15;4.10;;;1.55;;
19384;SDS011;9828;54.122;17.974;2023-07-08T17:51:39;2.83;;;1.95;;
19384;SDS011;9828;54.122;17.974;2023-07-08T17:57:01;2.63;;;1.50;;
19384;SDS011;9828;54.122;17.974;2023-07-08T18:02:23;4.75;;;2.55;;
19384;SDS011;9828;54.122;17.974;2023-07-08T18:07:49;5.07;;;2.05;;
19384;SDS011;9828;54.122;17.974;2023-07-08T18:13:17;6.32;;;2.53;;
19384;SDS011;9828;54.122;17.974;2023-07-08T18:18:43;7.63;;;2.55;;
19384;SDS011;9828;54.122;17.974;2023-07-08T18:24:07;3.25;;;1.90;;
19384;SDS011;9828;54.122;17.974;2023-07-08T18:29:31;6.45;;;2.22;;
19384;SDS011;9828;54.122;17.974;2023-07-08T18:34:53;7.18;;;2.10;;
19384;SDS011;9828;54.122;17.974;2023-07-08T18:40:15;3.72;;;2.22;;
19384;SDS011;9828;54.122;17.974;2023-07-08T18:45:46;5.22;;;2.30;;
19384;SDS011;9828;54.122;17.974;2023-07-08T18:51:14;5.93;;;2.00;;
19384;SDS011;9828;54.122;17.974;2023-07-08T18:56:47;3.75;;;2.17;;
19384;SDS011;9828;54.122;17.974;2023-07-08T19:07:54;4.13;;;2.22;;
19384;SDS011;9828;54.122;17.974;2023-07-08T19:13:19;3.70;;;2.45;;
19384;SDS011;9828;54.122;17.974;2023-07-08T19:18:44;2.47;;;2.05;;
19384;SDS011;9828;54.122;17.974;2023-07-08T19:24:09;4.47;;;2.00;;
19384;SDS011;9828;54.122;17.974;2023-07-08T19:29:37;3.83;;;2.00;;
19384;SDS011;9828;54.122;17.974;2023-07-08T19:35:00;3.38;;;2.47;;
19384;SDS011;9828;54.122;17.974;2023-07-08T19:40:24;4.57;;;2.10;;
19384;SDS011;9828;54.122;17.974;2023-07-08T19:45:47;4.88;;;2.50;;
19384;SDS011;9828;54.122;17.974;2023-07-08T19:51:09;4.43;;;2.45;;
19384;SDS011;9828;54.122;17.974;2023-07-08T19:56:33;4.18;;;2.78;;
19384;SDS011;9828;54.122;17.974;2023-07-08T20:01:56;5.53;;;2.72;;
19384;SDS011;9828;54.122;17.974;2023-07-08T20:07:20;6.22;;;2.78;;
19384;SDS011;9828;54.122;17.974;2023-07-08T20:12:41;3.50;;;2.53;;
19384;SDS011;9828;54.122;17.974;2023-07-08T20:18:03;4.82;;;2.75;;
19384;SDS011;9828;54.122;17.974;2023-07-08T20:23:26;4.03;;;2.90;;
19384;SDS011;9828;54.122;17.974;2023-07-08T20:28:48;5.72;;;3.05;;
19384;SDS011;9828;54.122;17.974;2023-07-08T20:34:11;3.33;;;2.20;;
19384;SDS011;9828;54.122;17.974;2023-07-08T20:39:38;3.47;;;2.50;;
19384;SDS011;9828;54.122;17.974;2023-07-08T20:45:00;4.47;;;3.25;;
19384;SDS011;9828;54.122;17.974;2023-07-08T20:50:22;4.72;;;3.40;;
19384;SDS011;9828;54.122;17.974;2023-07-08T20:55:45;6.15;;;3.40;;
19384;SDS011;9828;54.122;17.974;2023-07-08T21:01:08;6.85;;;3.55;;
19384;SDS011;9828;54.122;17.974;2023-07-08T21:06:30;7.47;;;3.47;;
19384;SDS011;9828;54.122;17.974;2023-07-08T21:11:54;5.55;;;3.60;;
19384;SDS011;9828;54.122;17.974;2023-07-08T21:17:16;9.30;;;3.65;;
19384;SDS011;9828;54.122;17.974;2023-07-08T21:22:41;8.50;;;3.53;;
19384;SDS011;9828;54.122;17.974;2023-07-08T21:28:03;6.05;;;4.10;;
19384;SDS011;9828;54.122;17.974;2023-07-08T21:33:27;7.18;;;3.95;;
19384;SDS011;9828;54.122;17.974;2023-07-08T21:38:50;6.47;;;4.30;;
19384;SDS011;9828;54.122;17.974;2023-07-08T21:44:14;8.27;;;4.55;;
19384;SDS011;9828;54.122;17.974;2023-07-08T21:49:37;6.90;;;4.30;;
19384;SDS011;9828;54.122;17.974;2023-07-08T21:54:59;6.70;;;4.15;;
19384;SDS011;9828;54.122;17.974;2023-07-08T22:00:21;6.68;;;3.90;;
19384;SDS011;9828;54.122;17.974;2023-07-08T22:05:58;7.22;;;4.70;;
19384;SDS011;9828;54.122;17.974;2023-07-08T22:11:27;8.48;;;4.65;;
19384;SDS011;9828;54.122;17.974;2023-07-08T22:16:51;6.43;;;4.40;;
19384;SDS011;9828;54.122;17.974;2023-07-08T22:22:21;11.40;;;5.55;;
19384;SDS011;9828;54.122;17.974;2023-07-08T22:27:43;8.48;;;5.05;;
19384;SDS011;9828;54.122;17.974;2023-07-08T22:33:05;9.25;;;4.65;;
19384;SDS011;9828;54.122;17.974;2023-07-08T22:38:29;7.07;;;4.07;;
19384;SDS011;9828;54.122;17.974;2023-07-08T22:43:50;6.57;;;4.18;;
19384;SDS011;9828;54.122;17.974;2023-07-08T22:49:13;8.10;;;4.85;;
19384;SDS011;9828;54.122;17.974;2023-07-08T22:54:45;8.90;;;4.78;;
19384;SDS011;9828;54.122;17.974;2023-07-08T23:00:07;7.43;;;5.03;;
19384;SDS011;9828;54.122;17.974;2023-07-08T23:05:31;10.60;;;6.45;;
19384;SDS011;9828;54.122;17.974;2023-07-08T23:10:54;10.55;;;5.93;;
19384;SDS011;9828;54.122;17.974;2023-07-08T23:21:39;8.98;;;5.72;;
19384;SDS011;9828;54.122;17.974;2023-07-08T23:27:03;9.70;;;5.97;;
19384;SDS011;9828;54.122;17.974;2023-07-08T23:32:25;9.25;;;6.50;;
19384;SDS011;9828;54.122;17.974;2023-07-08T23:37:47;8.65;;;5.45;;
19384;SDS011;9828;54.122;17.974;2023-07-08T23:43:14;12.98;;;6.03;;
19384;SDS011;9828;54.122;17.974;2023-07-08T23:48:36;7.63;;;4.97;;
19384;SDS011;9828;54.122;17.974;2023-07-08T23:53:59;9.73;;;5.55;;
19384;SDS011;9828;54.122;17.974;2023-07-08T23:59:21;10.15;;;5.68;;
